Terminal Aerodrome Forecast
Issued by NWS

Home | Current Version | Previous Version | Text Only | Print | Product List | Glossary On
Versions: 1 2 3 4 5 6 7 8 9 10 11 12 13
000
FTUS46 KSGX 021736
TAFSNA
TAF
KSNA 021736Z 0218/0318 16010KT P6SM -SHRA VCTS SCT025 BKN040CB
     FM022000 21010KT P6SM -SHRA VCTS SCT030 BKN040CB
     FM030200 VRB05KT P6SM VCSH SCT025 BKN050
     FM031500 VRB05KT P6SM FEW025 SCT050=

USA.gov is the U.S. government's official web portal to all federal, state and local government web resources and services.